Tiempo atmosférico en la estación meteorológica de Tuineje, Las Palmas (1 m.)



Fecha
DESCASC
Temp. máxima en grados centígrados (hora)
DESCASC
Temp. mínima en grados centígrados (hora)
DESCASC
Temp. media en grados centígrados
DESCASC
Racha de viento máxima en m/sg (hora)
DESCASC
Velocidad máxima media en intervalos de 10 minutos(hora)
DESCASC
Precipitaciones diarias en mm
DESCASC
Precipitaciones de 00:00 a 06:00 en mm
DESCASC
Precipitaciones de 06:00 a 12:00 en mm
DESCASC
Precipitaciones de 12:00 a 18:00 en mm
DESCASC
Precipitaciones de 18:00 a 24:00 en mm
DESCASC

Gráficas

Temp. máximas Temp. mínimas Temp. medias Precipitaciones Rachas de viento máximas Velocidades máximas media en intervalos de 10 minutos

Datos horarios

Fecha y hora oficial Temperatura (ºC) Velocidad del viento (km/h) Dirección del viento Racha (km/h) Dirección de racha Precipitación (mm) Presión (hPa) Tendencia (hPa) Humedad (%)
2020-07-08 23:00:00 28 10 Norte 43 Nordeste 0 -- -- 37
2020-07-08 22:00:00 29.2 32 Nordeste 42 Nordeste 0 -- -- 34
2020-07-08 21:00:00 30.1 28 Nordeste 47 Norte 0 -- -- 35
2020-07-08 20:00:00 31.5 30 Nordeste 45 Nordeste 0 -- -- 30
2020-07-08 19:00:00 32.4 28 Nordeste 45 Norte 0 -- -- 30
2020-07-08 18:00:00 32.7 32 Nordeste 45 Nordeste 0 -- -- 31
2020-07-08 17:00:00 31.4 32 Nordeste 44 Nordeste 0 -- -- 41
2020-07-08 16:00:00 32.3 30 Nordeste 41 Nordeste 0 -- -- 36
2020-07-08 15:00:00 29.1 17 Este 35 Este 0 -- -- 50
2020-07-08 14:00:00 28.7 20 Este 32 Este 0 -- -- 51
2020-07-08 13:00:00 34.1 15 Nordeste 33 Nordeste 0 -- -- 35
2020-07-08 12:00:00 30.9 16 Nordeste 27 Norte 0 -- -- 47
2020-07-08 11:00:00 32.1 10 Norte 22 Norte 0 -- -- 38
2020-07-08 10:00:00 30.6 14 Norte 31 Norte 0 -- -- 39
2020-07-08 09:00:00 27.7 18 Norte 31 Norte 0 -- -- 49
2020-07-08 08:00:00 25.6 11 Norte 25 Norte 0 -- -- 58
2020-07-08 07:00:00 23.6 9 Norte 18 Norte 0 -- -- 74
2020-07-08 06:00:00 23.8 6 Nordeste 13 Nordeste 0 -- -- 74
2020-07-08 05:00:00 23.3 7 Oeste 17 Oeste 0 -- -- 86
2020-07-08 04:00:00 23.4 10 Sudoeste 15 Sudoeste 0 -- -- 87
2020-07-08 03:00:00 23.3 8 Sudeste 14 Sudeste 0 -- -- 89
2020-07-08 02:00:00 25 5 Este 22 Este 0 -- -- 76
2020-07-08 01:00:00 24.2 12 Este 23 Este 0 -- -- 83
2020-07-08 00:00:00 26.6 11 Norte 20 Noroeste 0 -- -- 61
2020-07-07 23:00:00 26.3 10 Norte 23 Noroeste 0 -- -- 65
2020-07-07 22:00:00 26.8 12 Noroeste 22 Norte 0 -- -- 65
2020-07-07 21:00:00 25.1 0 Calma 8 Sudeste 0 -- -- 79
2020-07-07 20:00:00 25.9 2 Sudeste 7 Sudoeste 0 -- -- 77
2020-07-07 19:00:00 26.5 3 Sur 7 Sudeste 0 -- -- 78
2020-07-07 18:00:00 25.6 6 Sudeste 11 Sudeste 0 -- -- 83
2020-07-07 17:00:00 26 8 Sur 11 Sudeste 0 -- -- 79
2020-07-07 16:00:00 27.6 8 Sur 10 Sur 0 -- -- 72
2020-07-07 15:00:00 27.5 7 Sur 10 Sur 0 -- -- 73
2020-07-07 14:00:00 26.6 6 Sur 12 Sur 0 -- -- 75
2020-07-07 13:00:00 25.7 9 Sudeste 29 Sudeste 0 -- -- 77
2020-07-07 12:00:00 25.3 10 Este 28 Nordeste 0 -- -- 80
2020-07-07 11:00:00 25.6 11 Sudeste 28 Sudeste 0 -- -- 76
2020-07-07 10:00:00 25.2 6 Sudeste 20 Norte 0 -- -- 79
2020-07-07 09:00:00 27.2 11 Noroeste 24 Noroeste 0 -- -- 61
2020-07-07 08:00:00 25.5 14 Norte 24 Noroeste 0 -- -- 67
2020-07-07 07:00:00 25.9 3 Oeste 16 Este 0 -- -- 66
2020-07-07 06:00:00 25.5 8 Este 17 Nordeste 0 -- -- 70
2020-07-07 05:00:00 26.2 10 Nordeste 16 Nordeste 0 -- -- 59
2020-07-07 04:00:00 25 10 Norte 15 Nordeste 0 -- -- 69
2020-07-07 03:00:00 23.3 3 Nordeste 6 Nordeste 0 -- -- 87
2020-07-07 02:00:00 23 4 Oeste 10 Oeste 0 -- -- 90
2020-07-07 01:00:00 23.2 3 Sudoeste 8 Sudoeste 0 -- -- 90
2020-07-07 00:00:00 23.4 6 Sudoeste 9 Oeste 0 -- -- 87
2020-07-06 23:00:00 23.2 0 Calma 9 Este 0 -- -- 89
2020-07-06 22:00:00 23.2 5 Sudeste 8 Este 0 -- -- 88
2020-07-06 21:00:00 23.8 4 Sudoeste 12 Sudoeste 0 -- -- 84
2020-07-06 20:00:00 24.5 8 Sudoeste 15 Sudoeste 0 -- -- 81
2020-07-06 19:00:00 25.1 9 Sudoeste 22 Sudoeste 0 -- -- 79
2020-07-06 18:00:00 25.7 21 Sudoeste 27 Sudoeste 0 -- -- 76
2020-07-06 17:00:00 25.9 18 Sudoeste 26 Sudoeste 0 -- -- 75
2020-07-06 16:00:00 26.3 17 Sudoeste 27 Oeste 0 -- -- 74
2020-07-06 15:00:00 26 20 Sudoeste 24 Sudoeste 0 -- -- 73
2020-07-06 14:00:00 27.2 16 Sudoeste 28 Sur 0 -- -- 69
2020-07-06 13:00:00 26.5 17 Sudoeste 26 Sudoeste 0 -- -- 71
2020-07-06 12:00:00 26.7 13 Sudoeste 22 Sudoeste 0 -- -- 70
2020-07-06 11:00:00 28 3 Sur 19 Nordeste 0 -- -- 58
2020-07-06 10:00:00 28.2 15 Nordeste 27 Norte 0 -- -- 55
2020-07-06 09:00:00 26.2 18 Nordeste 28 Nordeste 0 -- -- 62
2020-07-06 08:00:00 25.1 13 Nordeste 26 Norte 0 -- -- 61
2020-07-06 07:00:00 23.8 14 Nordeste 26 Norte 0 -- -- 70
2020-07-06 06:00:00 25.6 12 Norte 21 Nordeste 0 -- -- 54
2020-07-06 05:00:00 27.4 14 Norte 27 Norte 0 -- -- 39
2020-07-06 04:00:00 26.5 11 Norte 37 Norte 0 -- -- 42
2020-07-06 03:00:00 26.8 16 Norte 36 Norte 0 -- -- 46
2020-07-06 02:00:00 26.9 7 Norte 41 Norte 0 -- -- 44
2020-07-06 01:00:00 26.5 21 Norte 38 Norte 0 -- -- 48
2020-07-06 00:00:00 26.5 18 Norte 37 Norte 0 -- -- 47
2020-07-05 23:00:00 24.6 15 Norte 30 Norte 0 -- -- 64
2020-07-05 22:00:00 25 16 Norte 31 Norte 0 -- -- 65
2020-07-05 21:00:00 25.9 17 Nordeste 26 Norte 0 -- -- 62
2020-07-05 20:00:00 27.6 13 Norte 29 Nordeste 0 -- -- 65
2020-07-05 19:00:00 26.7 9 Sudoeste 18 Oeste 0 -- -- 69
2020-07-05 18:00:00 30.9 13 Norte 23 Nordeste 0 -- -- 50
2020-07-05 17:00:00 27.7 15 Sudoeste 28 Sudoeste 0 -- -- 66
2020-07-05 16:00:00 30.4 9 Oeste 31 Este 0 -- -- 54
2020-07-05 15:00:00 27.6 15 Sudoeste 30 Norte 0 -- -- 64
2020-07-05 14:00:00 31.7 18 Norte 35 Norte 0 -- -- 46
2020-07-05 13:00:00 31.4 14 Norte 33 Norte 0 -- -- 43
2020-07-05 12:00:00 29.3 20 Norte 37 Norte 0 -- -- 48
2020-07-05 11:00:00 27.7 23 Nordeste 36 Norte 0 -- -- 46
2020-07-05 10:00:00 25.8 14 Norte 31 Noroeste 0 -- -- 47
2020-07-05 09:00:00 24.3 21 Norte 34 Norte 0 -- -- 58
2020-07-05 08:00:00 23 14 Nordeste 26 Nordeste 0 -- -- 60
2020-07-05 07:00:00 22.2 13 Nordeste 33 Norte 0 -- -- 62
2020-07-05 06:00:00 22.2 19 Norte 34 Noroeste 0 -- -- 65
2020-07-05 05:00:00 22.1 19 Norte 34 Norte 0 -- -- 66
2020-07-05 04:00:00 21.8 17 Norte 32 Norte 0 -- -- 69
2020-07-05 03:00:00 21.6 16 Norte 30 Norte 0 -- -- 72
2020-07-05 02:00:00 21.7 17 Norte 32 Norte 0 -- -- 72
2020-07-05 01:00:00 21.6 19 Norte 41 Norte 0 -- -- 74
2020-07-05 00:00:00 21.9 19 Nordeste 35 Norte 0 -- -- 72
2020-07-04 23:00:00 22.4 14 Nordeste 36 Norte 0 -- -- 68
2020-07-04 22:00:00 22.6 22 Norte 37 Norte 0 -- -- 69
2020-07-04 21:00:00 24 21 Norte 35 Norte 0 -- -- 60
2020-07-04 20:00:00 25.8 23 Nordeste 37 Norte 0 -- -- 52
2020-07-04 19:00:00 27.4 22 Norte 39 Noroeste 0 -- -- 46
2020-07-04 18:00:00 28.1 22 Norte 37 Norte 0 -- -- 49
2020-07-04 17:00:00 29.4 18 Nordeste 38 Nordeste 0 -- -- 48
2020-07-04 16:00:00 28.2 21 Nordeste 35 Nordeste 0 -- -- 51
2020-07-04 15:00:00 27.8 24 Nordeste 39 Norte 0 -- -- 52
2020-07-04 14:00:00 27.1 25 Nordeste 40 Nordeste 0 -- -- 55
2020-07-04 13:00:00 26.1 18 Nordeste 33 Nordeste 0 -- -- 57
2020-07-04 12:00:00 25.9 23 Nordeste 36 Nordeste 0 -- -- 57
2020-07-04 11:00:00 24.9 21 Nordeste 33 Nordeste 0 -- -- 59
2020-07-04 10:00:00 23.5 21 Nordeste 32 Nordeste 0 -- -- 66
2020-07-04 09:00:00 22.2 18 Nordeste 37 Nordeste 0 -- -- 71
2020-07-04 08:00:00 21.1 20 Nordeste 31 Nordeste 0 -- -- 76
2020-07-04 07:00:00 20.5 15 Norte 26 Norte 0 -- -- 77
2020-07-04 06:00:00 20.6 14 Norte 27 Norte 0 -- -- 77
2020-07-04 05:00:00 20.7 15 Norte 35 Norte 0 -- -- 76
2020-07-04 04:00:00 20.8 21 Norte 34 Norte 0 -- -- 75
2020-07-04 03:00:00 21.2 17 Norte 27 Norte 0 -- -- 73
2020-07-04 02:00:00 21.8 15 Norte 24 Norte 0 -- -- 71
2020-07-04 01:00:00 22.1 17 Nordeste 28 Nordeste 0 -- -- 73
2020-07-04 00:00:00 22.3 13 Norte 31 Norte 0 -- -- 71
2020-07-03 23:00:00 22.5 15 Norte 35 Norte 0 -- -- 71
2020-07-03 22:00:00 23.1 19 Norte 37 Norte 0 -- -- 68
2020-07-03 21:00:00 24.4 21 Norte 38 Norte 0 -- -- 63
2020-07-03 20:00:00 26.3 22 Norte 37 Norte 0 -- -- 58
2020-07-03 19:00:00 27.3 22 Nordeste 37 Nordeste 0 -- -- 57
2020-07-03 18:00:00 28.7 23 Nordeste 39 Nordeste 0 -- -- 51
2020-07-03 17:00:00 29.3 24 Nordeste 37 Nordeste 0 -- -- 49
2020-07-03 16:00:00 28.9 27 Nordeste 46 Nordeste 0 -- -- 50
2020-07-03 15:00:00 28.2 29 Nordeste 43 Nordeste 0 -- -- 51
2020-07-03 14:00:00 27.9 28 Nordeste 42 Nordeste 0 -- -- 52
2020-07-03 13:00:00 27.3 30 Nordeste 43 Nordeste 0 -- -- 56
2020-07-03 12:00:00 27.4 27 Nordeste 41 Nordeste 0 -- -- 55
2020-07-03 11:00:00 26.1 27 Nordeste 37 Nordeste 0 -- -- 58
2020-07-03 10:00:00 25 19 Nordeste 35 Norte 0 -- -- 63
2020-07-03 09:00:00 23.3 23 Nordeste 40 Nordeste 0 -- -- 70
2020-07-03 08:00:00 22.1 27 Nordeste 34 Norte 0 -- -- 76
2020-07-03 07:00:00 21.6 16 Norte 36 Norte 0 -- -- 76
2020-07-03 06:00:00 21.6 24 Norte 39 Norte 0 -- -- 78
2020-07-03 05:00:00 21.9 19 Norte 37 Norte 0 -- -- 74
2020-07-03 04:00:00 22.5 16 Norte 32 Norte 0 -- -- 69
2020-07-03 03:00:00 22.5 18 Norte 35 Nordeste 0 -- -- 69
2020-07-03 02:00:00 22.5 19 Norte 31 Norte 0 -- -- 70
2020-07-03 01:00:00 22.7 15 Norte 32 Norte 0 -- -- 70
2020-07-03 00:00:00 22.7 18 Norte 31 Noroeste 0 -- -- 72
2020-07-02 23:00:00 23.1 17 Norte 32 Norte 0 -- -- 71
2020-07-02 22:00:00 22.9 14 Nordeste 35 Nordeste 0 -- -- 75
2020-07-02 21:00:00 23.2 26 Nordeste 41 Norte 0 -- -- 73
2020-07-02 20:00:00 24.4 26 Nordeste 38 Nordeste 0 -- -- 68
2020-07-02 19:00:00 25.7 23 Nordeste 37 Nordeste 0 -- -- 64
2020-07-02 18:00:00 26.9 25 Nordeste 42 Nordeste 0 -- -- 59
2020-07-02 17:00:00 26.5 32 Nordeste 44 Norte 0 -- -- 62
2020-07-02 16:00:00 27.1 26 Nordeste 40 Nordeste 0 -- -- 62
2020-07-02 15:00:00 26.7 18 Este 48 Este 0 -- -- 64
2020-07-02 14:00:00 27.8 19 Nordeste 34 Nordeste 0 -- -- 56
2020-07-02 13:00:00 27.1 23 Nordeste 37 Nordeste 0 -- -- 60
2020-07-02 12:00:00 26.4 23 Nordeste 34 Nordeste 0 -- -- 61
2020-07-02 11:00:00 25.7 15 Nordeste 26 Norte 0 -- -- 61
2020-07-02 10:00:00 23.7 13 Norte 38 Norte 0 -- -- 69
2020-07-02 09:00:00 22.8 28 Norte 41 Norte 0 -- -- 74
2020-07-02 08:00:00 22.2 18 Nordeste 33 Nordeste 0 -- -- 78
2020-07-02 07:00:00 21.4 23 Nordeste 37 Norte 0 -- -- 80
2020-07-02 06:00:00 21.6 13 Norte 33 Norte 0 -- -- 78
2020-07-02 05:00:00 21.5 23 Nordeste 32 Nordeste 0 -- -- 79
2020-07-02 04:00:00 21.8 15 Norte 26 Norte 0 -- -- 78
2020-07-02 03:00:00 21.9 21 Nordeste 32 Nordeste 0 -- -- 79
2020-07-02 02:00:00 22.2 20 Nordeste 30 Norte 0 -- -- 78
2020-07-02 01:00:00 22.2 22 Nordeste 35 Norte 0 -- -- 78
2020-07-02 00:00:00 23 18 Nordeste 30 Nordeste 0 -- -- 75
2020-07-01 23:00:00 24 15 Norte 28 Norte 0 -- -- 70
2020-07-01 22:00:00 23.8 21 Nordeste 32 Norte 0 -- -- 73
2020-07-01 21:00:00 24.3 21 Nordeste 39 Nordeste 0 -- -- 71
2020-07-01 20:00:00 25.2 23 Nordeste 37 Nordeste 0 -- -- 68
2020-07-01 19:00:00 26.9 13 Nordeste 25 Este 0 -- -- 61
2020-07-01 18:00:00 27.6 16 Nordeste 27 Nordeste 0 -- -- 59
2020-07-01 17:00:00 28.5 15 Nordeste 37 Nordeste 0 -- -- 55
2020-07-01 16:00:00 27.7 20 Nordeste 42 Este 0 -- -- 59
2020-07-01 15:00:00 24.3 29 Este 57 Este 0 -- -- 75
2020-07-01 14:00:00 30.7 17 Norte 31 Norte 0 -- -- 48
2020-07-01 13:00:00 28.6 18 Nordeste 30 Nordeste 0 -- -- 53
2020-07-01 12:00:00 26.9 14 Nordeste 23 Nordeste 0 -- -- 57
2020-07-01 11:00:00 25.1 10 Nordeste 26 Nordeste 0 -- -- 63
2020-07-01 10:00:00 23.2 16 Nordeste 28 Nordeste 0 -- -- 70
2020-07-01 09:00:00 22 11 Nordeste 19 Nordeste 0 -- -- 75
2020-07-01 08:00:00 21.7 8 Nordeste 19 Norte 0 -- -- 75
2020-07-01 07:00:00 21.5 10 Nordeste 26 Norte 0 -- -- 77
2020-07-01 06:00:00 21.8 12 Norte 21 Norte 0 -- -- 76
2020-07-01 05:00:00 21.3 8 Norte 25 Norte 0 -- -- 76
2020-07-01 04:00:00 21.6 13 Norte 24 Norte 0 -- -- 75
2020-07-01 03:00:00 21.7 11 Nordeste 19 Nordeste 0 -- -- 76
2020-07-01 02:00:00 21.9 12 Norte 25 Norte 0 -- -- 75
2020-07-01 01:00:00 22.2 14 Norte 30 Nordeste 0 -- -- 75
2020-07-01 00:00:00 22.2 19 Nordeste 30 Norte 0 -- -- 76
2020-06-30 23:00:00 22.3 16 Nordeste 32 Nordeste 0 -- -- 77
2020-06-30 22:00:00 22.8 18 Nordeste 30 Nordeste 0 -- -- 75
2020-06-30 21:00:00 23.9 17 Nordeste 32 Nordeste 0 -- -- 71
2020-06-30 20:00:00 24.6 20 Nordeste 31 Nordeste 0 -- -- 67
2020-06-30 19:00:00 25.2 21 Nordeste 34 Norte 0 -- -- 64
2020-06-30 18:00:00 25.8 23 Nordeste 35 Nordeste 0 -- -- 61
2020-06-30 17:00:00 25.8 18 Nordeste 58 Nordeste 0 -- -- 63
2020-06-30 16:00:00 23.6 27 Este 60 Este 0 -- -- 72
2020-06-30 15:00:00 24.6 26 Este 50 Sudeste 0 -- -- 70
2020-06-30 14:00:00 27.5 19 Nordeste 33 Este 0 -- -- 56
2020-06-30 13:00:00 26.1 18 Nordeste 30 Nordeste 0 -- -- 59
2020-06-30 12:00:00 25.6 14 Nordeste 28 Nordeste 0 -- -- 59
2020-06-30 11:00:00 24.6 18 Nordeste 29 Nordeste 0 -- -- 62
2020-06-30 10:00:00 23.7 21 Nordeste 32 Nordeste 0 -- -- 64
2020-06-30 09:00:00 22.6 18 Nordeste 28 Nordeste 0 -- -- 67
2020-06-30 08:00:00 22.1 12 Nordeste 26 Nordeste 0 -- -- 69
2020-06-30 07:00:00 21.9 11 Norte 25 Nordeste 0 -- -- 69
2020-06-30 06:00:00 22.1 13 Norte 25 Norte 0 -- -- 69
2020-06-30 05:00:00 22.3 14 Norte 26 Norte 0 -- -- 68
2020-06-30 04:00:00 22.5 13 Norte 28 Nordeste 0 -- -- 68
2020-06-30 03:00:00 22.3 20 Nordeste 33 Norte 0 -- -- 69
2020-06-30 02:00:00 22.5 11 Nordeste 28 Norte 0 -- -- 69
2020-06-30 01:00:00 22.6 17 Nordeste 32 Nordeste 0 -- -- 69
2020-06-30 00:00:00 22.8 18 Nordeste 33 Nordeste 0 -- -- 68
2020-06-29 23:00:00 23 21 Nordeste 32 Nordeste 0 -- -- 68
2020-06-29 22:00:00 23.8 12 Norte 36 Norte 0 -- -- 65
2020-06-29 21:00:00 23.8 21 Norte 38 Norte 0 -- -- 66
2020-06-29 20:00:00 25.2 20 Norte 41 Norte 0 -- -- 61
2020-06-29 19:00:00 25.8 17 Nordeste 37 Nordeste 0 -- -- 62
2020-06-29 18:00:00 27.3 19 Norte 39 Este 0 -- -- 60
2020-06-29 17:00:00 28.6 13 Norte 36 Sudeste 0 -- -- 52
2020-06-29 16:00:00 26 19 Este 37 Nordeste 0 -- -- 63
2020-06-29 15:00:00 25.8 23 Este 35 Este 0 -- -- 65
2020-06-29 14:00:00 26.8 19 Nordeste 36 Este 0 -- -- 57
2020-06-29 13:00:00 26.5 21 Nordeste 40 Nordeste 0 -- -- 57
2020-06-29 12:00:00 25.6 23 Nordeste 40 Nordeste 0 -- -- 58
2020-06-29 11:00:00 25.4 16 Norte 31 Nordeste 0 -- -- 60
2020-06-29 10:00:00 24.6 17 Norte 34 Nordeste 0 -- -- 62
2020-06-29 09:00:00 23.1 18 Norte 29 Norte 0 -- -- 66
2020-06-29 08:00:00 22.6 15 Norte 25 Norte 0 -- -- 68
2020-06-29 07:00:00 22.3 11 Nordeste 36 Norte 0 -- -- 68
2020-06-29 06:00:00 22.4 12 Norte 28 Norte 0 -- -- 69
2020-06-29 05:00:00 22.2 19 Nordeste 28 Nordeste 0 -- -- 69
2020-06-29 04:00:00 22 12 Nordeste 23 Norte 0 -- -- 70
2020-06-29 03:00:00 21.8 9 Nordeste 22 Norte 0 -- -- 70
2020-06-29 02:00:00 22.2 13 Nordeste 24 Norte 0 -- -- 69
2020-06-29 01:00:00 22.4 13 Nordeste 26 Norte 0 -- -- 68
2020-06-29 00:00:00 22.7 9 Norte 32 Norte 0 -- -- 68
2020-06-28 23:00:00 23.1 18 Norte 40 Norte 0 -- -- 66
2020-06-28 22:00:00 23.2 22 Norte 40 Norte 0 -- -- 66
2020-06-28 21:00:00 23.6 21 Norte 41 Norte 0 -- -- 66
2020-06-28 20:00:00 24.9 24 Norte 40 Norte 0 -- -- 61
2020-06-28 19:00:00 26 21 Nordeste 38 Nordeste 0 -- -- 63
2020-06-28 18:00:00 27 19 Nordeste 37 Nordeste 0 -- -- 59
2020-06-28 17:00:00 25.9 17 Este 35 Nordeste 0 -- -- 63
2020-06-28 16:00:00 27.2 18 Nordeste 35 Este 0 -- -- 58
2020-06-28 15:00:00 27.3 18 Nordeste 39 Nordeste 0 -- -- 56
2020-06-28 14:00:00 26.6 22 Nordeste 40 Nordeste 0 -- -- 58
2020-06-28 13:00:00 26.6 26 Nordeste 45 Nordeste 0 -- -- 56
2020-06-28 12:00:00 25.5 26 Nordeste 38 Nordeste 0 -- -- 58
2020-06-28 11:00:00 24.6 24 Nordeste 36 Nordeste 0 -- -- 60
2020-06-28 10:00:00 23.4 25 Nordeste 37 Nordeste 0 -- -- 63
2020-06-28 09:00:00 22.7 17 Nordeste 32 Norte 0 -- -- 65
2020-06-28 08:00:00 21.3 11 Nordeste 22 Nordeste 0 -- -- 70
2020-06-28 07:00:00 20.8 12 Norte 22 Norte 0 -- -- 72
2020-06-28 06:00:00 20.9 11 Norte 23 Norte 0 -- -- 71
2020-06-28 05:00:00 21.1 15 Nordeste 28 Nordeste 0 -- -- 71
2020-06-28 04:00:00 21.3 10 Norte 24 Norte 0 -- -- 70
2020-06-28 03:00:00 21.3 15 Nordeste 27 Norte 0 -- -- 71
2020-06-28 02:00:00 21.6 15 Norte 34 Nordeste 0 -- -- 70
2020-06-28 01:00:00 21.8 19 Nordeste 31 Nordeste 0 -- -- 70
2020-06-28 00:00:00 22.1 19 Norte 30 Nordeste 0 -- -- 69
2020-06-27 23:00:00 22.2 18 Nordeste 34 Nordeste 0 -- -- 69
2020-06-27 22:00:00 22.5 22 Nordeste 35 Nordeste 0 -- -- 71
2020-06-27 21:00:00 23.4 21 Nordeste 33 Nordeste 0 -- -- 67
2020-06-27 20:00:00 24.3 22 Nordeste 33 Nordeste 0 -- -- 64
2020-06-27 19:00:00 25.7 18 Nordeste 32 Nordeste 0 -- -- 59
2020-06-27 18:00:00 24.8 21 Este 33 Este 0 -- -- 64
2020-06-27 17:00:00 27 20 Nordeste 36 Nordeste 0 -- -- 53
2020-06-27 16:00:00 27 22 Nordeste 36 Nordeste 0 -- -- 53
2020-06-27 15:00:00 26.5 23 Nordeste 35 Nordeste 0 -- -- 52
2020-06-27 14:00:00 26.3 19 Nordeste 38 Nordeste 0 -- -- 52
2020-06-27 13:00:00 25.4 24 Nordeste 38 Nordeste 0 -- -- 55
2020-06-27 12:00:00 24.4 23 Nordeste 43 Nordeste 0 -- -- 58
2020-06-27 11:00:00 23.1 25 Nordeste 40 Nordeste 0 -- -- 63
2020-06-27 10:00:00 22.1 26 Nordeste 36 Nordeste 0 -- -- 64
2020-06-27 09:00:00 21.6 22 Nordeste 33 Nordeste 0 -- -- 66
2020-06-27 08:00:00 21.1 17 Nordeste 31 Nordeste 0 -- -- 68
2020-06-27 07:00:00 20.8 17 Nordeste 28 Norte 0 -- -- 70
2020-06-27 06:00:00 20.8 16 Nordeste 26 Nordeste 0 -- -- 70
2020-06-27 05:00:00 20.5 12 Norte 22 Norte 0 -- -- 71
2020-06-27 04:00:00 20.7 11 Norte 21 Norte 0 -- -- 71
2020-06-27 03:00:00 20.9 9 Norte 23 Norte 0 -- -- 71
2020-06-27 02:00:00 21.1 10 Norte 21 Norte 0 -- -- 72
2020-06-27 01:00:00 21.4 9 Nordeste 21 Norte 0 -- -- 71
2020-06-27 00:00:00 21.7 10 Nordeste 34 Norte 0 -- -- 70
2020-06-26 23:00:00 22 18 Norte 31 Norte 0 -- -- 70
2020-06-26 22:00:00 22.8 17 Nordeste 35 Nordeste 0 -- -- 65
2020-06-26 21:00:00 23.2 23 Nordeste 38 Nordeste 0 -- -- 67
2020-06-26 20:00:00 23.9 28 Nordeste 40 Nordeste 0 -- -- 65
2020-06-26 19:00:00 24.8 23 Nordeste 38 Nordeste 0 -- -- 63
2020-06-26 18:00:00 25.6 25 Nordeste 39 Nordeste 0 -- -- 58
2020-06-26 17:00:00 25.9 23 Nordeste 42 Nordeste 0 -- -- 57
2020-06-26 16:00:00 24.7 27 Nordeste 39 Nordeste 0 -- -- 64
2020-06-26 15:00:00 25.5 24 Nordeste 41 Este 0 -- -- 59
2020-06-26 14:00:00 25.7 23 Nordeste 40 Nordeste 0 -- -- 58
2020-06-26 13:00:00 26 22 Nordeste 42 Nordeste 0 -- -- 56
2020-06-26 12:00:00 25.1 25 Nordeste 42 Nordeste 0 -- -- 55
2020-06-26 11:00:00 24.4 24 Nordeste 44 Nordeste 0 -- -- 60
2020-06-26 10:00:00 23.9 19 Norte 34 Norte 0 -- -- 61
2020-06-26 09:00:00 22.6 22 Nordeste 37 Nordeste 0 -- -- 63
2020-06-26 08:00:00 21.7 20 Nordeste 32 Norte 0 -- -- 66
2020-06-26 07:00:00 21.6 23 Nordeste 32 Nordeste 0 -- -- 68
2020-06-26 06:00:00 21.6 12 Nordeste 27 Nordeste 0 -- -- 69
2020-06-26 05:00:00 21.6 14 Nordeste 22 Nordeste 0 -- -- 68
2020-06-26 04:00:00 21 9 Norte 26 Norte 0 -- -- 69
2020-06-26 03:00:00 21.2 19 Norte 29 Nordeste 0 -- -- 70
2020-06-26 02:00:00 21.3 15 Nordeste 31 Nordeste 0 -- -- 69
2020-06-26 01:00:00 21.4 19 Nordeste 31 Nordeste 0 -- -- 70
2020-06-26 00:00:00 21.6 17 Nordeste 28 Nordeste 0 -- -- 70
2020-06-25 23:00:00 21.9 14 Norte 31 Norte 0 -- -- 68
2020-06-25 22:00:00 22.4 17 Norte 41 Norte 0 -- -- 65
2020-06-25 21:00:00 23.4 22 Norte 34 Noroeste 0 -- -- 64
2020-06-25 20:00:00 24.2 21 Nordeste 31 Nordeste 0 -- -- 63
2020-06-25 19:00:00 24.9 20 Nordeste 37 Nordeste 0 -- -- 62
2020-06-25 18:00:00 25.5 22 Nordeste 38 Este 0 -- -- 59
2020-06-25 17:00:00 25.8 25 Nordeste 45 Nordeste 0 -- -- 59
2020-06-25 16:00:00 24.9 25 Nordeste 44 Este 0 -- -- 64
2020-06-25 15:00:00 25.2 22 Este 44 Este 0 -- -- 63
2020-06-25 14:00:00 24.8 24 Este 40 Este 0 -- -- 64
2020-06-25 13:00:00 27.5 16 Nordeste 39 Norte 0 -- -- 50
2020-06-25 12:00:00 26.3 18 Nordeste 32 Nordeste 0 -- -- 51
2020-06-25 11:00:00 24.6 19 Norte 32 Norte 0 -- -- 57
2020-06-25 10:00:00 23.2 18 Nordeste 34 Norte 0 -- -- 63
2020-06-25 09:00:00 22.6 16 Norte 30 Nordeste 0 -- -- 64
2020-06-25 08:00:00 22.1 13 Norte 30 Nordeste 0 -- -- 66
2020-06-25 07:00:00 22.2 12 Nordeste 27 Nordeste 0 -- -- 66
2020-06-25 06:00:00 22.1 16 Nordeste 31 Nordeste 0 -- -- 64
2020-06-25 05:00:00 22.1 9 Norte 22 Norte 0 -- -- 64
2020-06-25 04:00:00 22.1 12 Norte 22 Norte 0 -- -- 66
2020-06-25 03:00:00 22.3 14 Norte 23 Norte 0 -- -- 67
2020-06-25 02:00:00 22.3 17 Nordeste 23 Nordeste 0 -- -- 70
2020-06-25 01:00:00 22.1 9 Norte 26 Norte 0 -- -- 70
2020-06-25 00:00:00 22 15 Norte 33 Norte 0 -- -- 71
2020-06-24 23:00:00 22.3 15 Norte 38 Norte 0 -- -- 71
2020-06-24 22:00:00 22.4 23 Norte 45 Norte 0 -- -- 72
2020-06-24 21:00:00 23 25 Norte 44 Norte 0 -- -- 67
2020-06-24 20:00:00 24.5 26 Norte 43 Norte 0 -- -- 59
2020-06-24 19:00:00 26 21 Norte 33 Norte 0 -- -- 56
2020-06-24 18:00:00 27.4 17 Norte 33 Norte 0 -- -- 50
2020-06-24 17:00:00 25.5 17 Este 37 Este 0 -- -- 61
2020-06-24 16:00:00 24.9 23 Este 42 Este 0 -- -- 63
2020-06-24 15:00:00 23.7 30 Este 50 Este 0 -- -- 65
2020-06-24 14:00:00 24.2 27 Este 48 Este 0 -- -- 63
2020-06-24 13:00:00 25.5 18 Nordeste 36 Nordeste 0 -- -- 57
2020-06-24 12:00:00 24.7 22 Nordeste 41 Nordeste 0 -- -- 57
2020-06-24 11:00:00 23.9 20 Nordeste 37 Norte 0 -- -- 61
2020-06-24 10:00:00 23.6 19 Nordeste 31 Norte 0 -- -- 59
2020-06-24 09:00:00 22.6 14 Nordeste 28 Nordeste 0 -- -- 63
2020-06-24 08:00:00 21.7 14 Norte 29 Norte 0 -- -- 67
2020-06-24 07:00:00 21.2 7 Nordeste 21 Norte 0 -- -- 71
2020-06-24 06:00:00 20.8 14 Norte 28 Norte 0 -- -- 71
2020-06-24 05:00:00 20.8 14 Norte 39 Norte 0 -- -- 71
2020-06-24 04:00:00 21 18 Norte 31 Norte 0 -- -- 70
2020-06-24 03:00:00 21.4 15 Norte 25 Norte 0 -- -- 70
2020-06-24 02:00:00 21.5 12 Norte 28 Norte 0 -- -- 68
2020-06-24 01:00:00 21.7 11 Norte 25 Norte 0 -- -- 68
2020-06-24 00:00:00 22 12 Nordeste 26 Norte 0 -- -- 67
2020-06-23 23:00:00 22.1 15 Norte 32 Norte 0 -- -- 68
2020-06-23 22:00:00 22.6 17 Nordeste 26 Nordeste 0 -- -- 71
2020-06-23 21:00:00 23.3 15 Nordeste 24 Nordeste 0 -- -- 69
2020-06-23 20:00:00 24.1 15 Nordeste 31 Nordeste 0 -- -- 67
2020-06-23 19:00:00 25.1 16 Nordeste 39 Este 0 -- -- 63
2020-06-23 18:00:00 23.9 25 Este 41 Este 0 -- -- 72
2020-06-23 17:00:00 24.5 26 Este 47 Este 0 -- -- 68
2020-06-23 16:00:00 28.5 19 Norte 36 Norte 0 -- -- 49
2020-06-23 15:00:00 28.6 21 Norte 40 Norte 0 -- -- 48
2020-06-23 14:00:00 27.9 20 Norte 37 Nordeste 0 -- -- 50
2020-06-23 13:00:00 27.6 16 Norte 43 Norte 0 -- -- 50
2020-06-23 12:00:00 26.9 16 Norte 35 Norte 0 -- -- 52
2020-06-23 11:00:00 25.4 16 Nordeste 27 Nordeste 0 -- -- 57
2020-06-23 10:00:00 23.9 19 Nordeste 31 Nordeste 0 -- -- 61
2020-06-23 09:00:00 22.3 21 Nordeste 32 Nordeste 0 -- -- 67
2020-06-23 08:00:00 21.2 12 Nordeste 22 Norte 0 -- -- 72
2020-06-23 07:00:00 20.2 10 Nordeste 28 Norte 0 -- -- 73
2020-06-23 06:00:00 20.6 14 Norte 28 Norte 0 -- -- 72
2020-06-23 05:00:00 20.8 13 Norte 28 Norte 0 -- -- 73
2020-06-23 04:00:00 21.1 13 Norte 26 Norte 0 -- -- 72
2020-06-23 03:00:00 21.4 10 Norte 25 Norte 0 -- -- 72
2020-06-23 02:00:00 21.7 10 Norte 21 Norte 0 -- -- 71
2020-06-23 01:00:00 21.7 12 Norte 29 Norte 0 -- -- 72
2020-06-23 00:00:00 21.9 14 Norte 31 Norte 0 -- -- 72
2020-06-22 23:00:00 22.2 17 Norte 30 Norte 0 -- -- 71
2020-06-22 22:00:00 22.4 15 Norte 30 Norte 0 -- -- 70
2020-06-22 21:00:00 23.5 17 Norte 32 Norte 0 -- -- 66
2020-06-22 20:00:00 25.6 18 Norte 28 Norte 0 -- -- 57
2020-06-22 19:00:00 27.9 12 Norte 32 Nordeste 0 -- -- 51
2020-06-22 18:00:00 29.3 13 Norte 27 Norte 0 -- -- 48
2020-06-22 17:00:00 29.7 16 Norte 29 Norte 0 -- -- 47
2020-06-22 16:00:00 29.8 15 Norte 28 Nordeste 0 -- -- 46
2020-06-22 15:00:00 30.1 16 Norte 31 Norte 0 -- -- 46
2020-06-22 14:00:00 29.7 14 Norte 30 Nordeste 0 -- -- 47
2020-06-22 13:00:00 28.7 13 Norte 30 Norte 0 -- -- 49
2020-06-22 12:00:00 28.1 12 Norte 26 Nordeste 0 -- -- 50
2020-06-22 11:00:00 26.4 13 Norte 28 Norte 0 -- -- 55
2020-06-22 10:00:00 24.5 17 Norte 33 Norte 0 -- -- 61
2020-06-22 09:00:00 23.2 17 Norte 33 Norte 0 -- -- 67
2020-06-22 08:00:00 21.4 10 Nordeste 18 Norte 0 -- -- 74
2020-06-22 07:00:00 20.4 10 Nordeste 22 Norte 0 -- -- 76
2020-06-22 06:00:00 20.9 10 Norte 27 Norte 0 -- -- 72
2020-06-22 05:00:00 21 14 Norte 32 Norte 0 -- -- 74
2020-06-22 04:00:00 21 19 Norte 30 Norte 0 -- -- 75
2020-06-22 03:00:00 21.3 16 Norte 27 Norte 0 -- -- 74
2020-06-22 02:00:00 21.4 13 Nordeste 22 Nordeste 0 -- -- 75
2020-06-22 01:00:00 21.7 11 Norte 26 Norte 0 -- -- 73
2020-06-22 00:00:00 22.1 15 Norte 29 Norte 0 -- -- 72
2020-06-21 23:00:00 22.4 15 Norte 32 Norte 0 -- -- 70
2020-06-21 22:00:00 22.9 15 Norte 26 Norte 0 -- -- 66
2020-06-21 21:00:00 24.1 17 Norte 33 Norte 0 -- -- 62
2020-06-21 20:00:00 25.7 19 Norte 31 Norte 0 -- -- 56
2020-06-21 19:00:00 27.3 20 Norte 40 Norte 0 -- -- 53
2020-06-21 18:00:00 28.9 19 Nordeste 39 Nordeste 0 -- -- 49
2020-06-21 17:00:00 29.1 24 Nordeste 38 Nordeste 0 -- -- 41
2020-06-21 16:00:00 29.1 26 Nordeste 47 Nordeste 0 -- -- 40
2020-06-21 15:00:00 28.4 23 Nordeste 39 Nordeste 0 -- -- 42
2020-06-21 14:00:00 27.6 27 Nordeste 39 Nordeste 0 -- -- 45
2020-06-21 13:00:00 27.4 21 Nordeste 37 Nordeste 0 -- -- 49
2020-06-21 12:00:00 25.8 25 Nordeste 39 Nordeste 0 -- -- 56
2020-06-21 11:00:00 25.3 22 Nordeste 32 Nordeste 0 -- -- 54
2020-06-21 10:00:00 24 17 Nordeste 28 Nordeste 0 -- -- 60
2020-06-21 09:00:00 22.9 18 Norte 30 Norte 0 -- -- 64
2020-06-21 08:00:00 21 16 Norte 31 Nordeste 0 -- -- 71
2020-06-21 07:00:00 20.3 18 Norte 33 Norte 0 -- -- 75
2020-06-21 06:00:00 20.7 20 Norte 31 Norte 0 -- -- 75
2020-06-21 05:00:00 20.5 13 Nordeste 22 Norte 0 -- -- 75
2020-06-21 04:00:00 20.6 9 Norte 19 Norte 0 -- -- 74
2020-06-21 03:00:00 20.7 8 Norte 18 Noroeste 0 -- -- 73
2020-06-21 02:00:00 20.9 7 Norte 18 Nordeste 0 -- -- 71
2020-06-21 01:00:00 21.3 13 Nordeste 23 Nordeste 0 -- -- 72
2020-06-21 00:00:00 21.7 13 Nordeste 27 Este 0 -- -- 70
2020-06-20 23:00:00 22.3 12 Nordeste 23 Nordeste 0 -- -- 66
2020-06-20 22:00:00 22.7 16 Nordeste 32 Nordeste 0 -- -- 68
2020-06-20 21:00:00 23.1 21 Nordeste 36 Nordeste 0 -- -- 67
2020-06-20 20:00:00 24 21 Nordeste 37 Nordeste 0 -- -- 64
2020-06-20 19:00:00 24.6 21 Nordeste 33 Este 0 -- -- 64
2020-06-20 18:00:00 24.1 24 Este 40 Este 0 -- -- 67
2020-06-20 17:00:00 25.7 16 Nordeste 39 Este 0 -- -- 61
2020-06-20 16:00:00 25.3 21 Nordeste 46 Este 0 -- -- 63
2020-06-20 15:00:00 23.9 28 Este 52 Este 0 -- -- 65
2020-06-20 14:00:00 23.5 24 Este 49 Este 0 -- -- 70
2020-06-20 13:00:00 25.8 13 Este 30 Nordeste 0 -- -- 59
2020-06-20 12:00:00 25.5 15 Este 35 Nordeste 0 -- -- 54
2020-06-20 11:00:00 24.5 20 Nordeste 35 Nordeste 0 -- -- 56
2020-06-20 10:00:00 23.7 16 Nordeste 29 Nordeste 0 -- -- 61
2020-06-20 09:00:00 23.6 10 Norte 19 Noroeste 0 -- -- 60
2020-06-20 08:00:00 21.3 10 Norte 17 Norte 0 -- -- 68
2020-06-20 07:00:00 20.5 9 Norte 19 Norte 0 -- -- 71
2020-06-20 06:00:00 20.6 7 Norte 21 Norte 0 -- -- 72
2020-06-20 05:00:00 20.8 14 Nordeste 24 Norte 0 -- -- 72
2020-06-20 04:00:00 20.7 10 Norte 19 Norte 0 -- -- 72
2020-06-20 03:00:00 21 8 Norte 18 Norte 0 -- -- 72
2020-06-20 02:00:00 21.1 7 Nordeste 15 Norte 0 -- -- 73
2020-06-20 01:00:00 21.7 12 Nordeste 26 Nordeste 0 -- -- 71
2020-06-20 00:00:00 22 14 Nordeste 28 Nordeste 0 -- -- 70
2020-06-19 23:00:00 22.4 21 Nordeste 34 Nordeste 0 -- -- 68
2020-06-19 22:00:00 22.8 24 Nordeste 35 Nordeste 0 -- -- 67
2020-06-19 21:00:00 23.2 22 Nordeste 34 Nordeste 0 -- -- 69
2020-06-19 20:00:00 24.4 24 Nordeste 38 Nordeste 0 -- -- 64
2020-06-19 19:00:00 25.6 23 Nordeste 41 Nordeste 0 -- -- 60
2020-06-19 18:00:00 26 26 Nordeste 42 Nordeste 0 -- -- 60
2020-06-19 17:00:00 26.7 26 Nordeste 52 Nordeste 0 -- -- 56
2020-06-19 16:00:00 27.1 22 Nordeste 42 Nordeste 0 -- -- 51
2020-06-19 15:00:00 27.2 23 Nordeste 37 Nordeste 0 -- -- 51
2020-06-19 14:00:00 26.6 26 Nordeste 40 Nordeste 0 -- -- 53
2020-06-19 13:00:00 26.4 23 Nordeste 40 Nordeste 0 -- -- 54
2020-06-19 12:00:00 25.3 26 Nordeste 43 Nordeste 0 -- -- 56
2020-06-19 11:00:00 24.5 25 Nordeste 42 Nordeste 0 -- -- 59
2020-06-19 10:00:00 23.8 26 Nordeste 44 Norte 0 -- -- 63
2020-06-19 09:00:00 22.3 18 Nordeste 32 Norte 0 -- -- 72
2020-06-19 08:00:00 21.9 14 Nordeste 21 Nordeste 0 -- -- 74
2020-06-19 07:00:00 21 10 Norte 20 Norte 0 -- -- 74
2020-06-19 06:00:00 21 12 Norte 18 Norte 0 -- -- 74
2020-06-19 05:00:00 21.2 10 Nordeste 17 Norte 0 -- -- 74
2020-06-19 04:00:00 21.4 11 Nordeste 19 Norte 0 -- -- 74
2020-06-19 03:00:00 21.5 11 Nordeste 22 Nordeste 0 -- -- 73
2020-06-19 02:00:00 21.8 15 Nordeste 25 Nordeste 0 -- -- 72
2020-06-19 01:00:00 22 14 Nordeste 25 Nordeste 0 -- -- 71
2020-06-19 00:00:00 22.2 8 Nordeste 16 Norte 0 -- -- 70
2020-06-18 23:00:00 22.5 10 Nordeste 23 Norte 0 -- -- 71
2020-06-18 22:00:00 22.9 16 Nordeste 27 Nordeste 0 -- -- 67
2020-06-18 21:00:00 23.5 18 Nordeste 28 Nordeste 0 -- -- 65
2020-06-18 20:00:00 24 18 Nordeste 29 Nordeste 0 -- -- 65
2020-06-18 19:00:00 23.8 10 Este 24 Sudeste 0 -- -- 69
2020-06-18 18:00:00 23.2 11 Este 31 Nordeste 0 -- -- 74
2020-06-18 17:00:00 23.6 14 Este 24 Sudeste 0 -- -- 77
2020-06-18 16:00:00 23.7 9 Sudeste 17 Sur 0 -- -- 77
2020-06-18 15:00:00 23.4 10 Sudeste 22 Sudeste 0 -- -- 78
2020-06-18 14:00:00 23.7 11 Sudeste 25 Este 0 -- -- 77
2020-06-18 13:00:00 23.7 12 Sudeste 22 Este 0 -- -- 77
2020-06-18 12:00:00 26 9 Sudeste 19 Este 0 -- -- 70
2020-06-18 11:00:00 26.5 8 Sur 24 Norte 0 -- -- 62
2020-06-18 10:00:00 25.4 12 Norte 26 Norte 0 -- -- 57
2020-06-18 09:00:00 23.5 20 Norte 33 Norte 0 -- -- 71
2020-06-18 08:00:00 22.8 10 Norte 19 Norte 0 -- -- 76
2020-06-18 07:00:00 21.8 12 Norte 38 Norte 0 -- -- 80
2020-06-18 06:00:00 21.7 10 Norte 35 Norte 0 -- -- 80
2020-06-18 05:00:00 22 17 Norte 32 Norte 0 -- -- 76
2020-06-18 04:00:00 21.7 12 Norte 22 Norte 0 -- -- 77
2020-06-18 03:00:00 21.7 6 Nordeste 15 Noroeste 0 -- -- 78
2020-06-18 02:00:00 22.1 8 Norte 24 Norte 0 -- -- 77
2020-06-18 01:00:00 22.6 8 Nordeste 15 Nordeste 0 -- -- 73
2020-06-18 00:00:00 22.8 3 Sudeste 18 Norte 0 -- -- 80
2020-06-17 23:00:00 23 6 Norte 14 Norte 0 -- -- 70
2020-06-17 22:00:00 22.6 5 Este 14 Este 0 -- -- 81
2020-06-17 21:00:00 22.8 7 Este 14 Este 0 -- -- 82
2020-06-17 20:00:00 23.5 9 Este 14 Este 0 -- -- 79
2020-06-17 19:00:00 23.7 8 Sudeste 11 Sudeste 0 -- -- 76
2020-06-17 18:00:00 25.2 5 Sur 14 Sudeste 0 -- -- 72
2020-06-17 17:00:00 24.9 8 Sudeste 17 Sudeste 0 -- -- 73
2020-06-17 16:00:00 26.4 5 Sudeste 16 Este 0 -- -- 69
2020-06-17 15:00:00 24.5 9 Sudeste 32 Este 0 -- -- 76
2020-06-17 14:00:00 24.6 15 Este 35 Nordeste 0 -- -- 75
2020-06-17 13:00:00 23.3 21 Este 33 Este 0 -- -- 77
2020-06-17 12:00:00 23.6 17 Este 32 Este 0 -- -- 76
2020-06-17 11:00:00 23.7 16 Este 35 Este 0 -- -- 76
2020-06-17 10:00:00 23.5 14 Este 29 Este 0 -- -- 78
2020-06-17 09:00:00 23.5 4 Nordeste 9 Nordeste 0 -- -- 76
2020-06-17 08:00:00 22.4 7 Nordeste 12 Nordeste 0 -- -- 81
2020-06-17 07:00:00 21.8 4 Sudeste 14 Sudeste 0 -- -- 86
2020-06-17 06:00:00 22.2 8 Sudeste 16 Sudeste 0 -- -- 88
2020-06-17 05:00:00 23 3 Nordeste 16 Este 0 -- -- 74
2020-06-17 04:00:00 23.2 6 Norte 12 Nordeste 0 -- -- 71
2020-06-17 03:00:00 22.7 4 Sudoeste 14 Sudoeste 0 -- -- 86
2020-06-17 02:00:00 23 6 Sudoeste 13 Sudoeste 0 -- -- 85
2020-06-17 01:00:00 23.9 6 Noroeste 12 Oeste 0 -- -- 71
2020-06-17 00:00:00 24 7 Norte 14 Noroeste 0 -- -- 70
2020-06-16 23:00:00 24.4 5 Norte 11 Nordeste 0 -- -- 66
2020-06-16 22:00:00 25.1 6 Norte 17 Norte 0 -- -- 63
2020-06-16 21:00:00 24.5 6 Nordeste 21 Sudeste 0 -- -- 70
2020-06-16 20:00:00 27.6 18 Nordeste 31 Nordeste 0 -- -- 53
2020-06-16 19:00:00 28.7 14 Norte 27 Norte 0 -- -- 50
2020-06-16 18:00:00 27.9 5 Sudoeste 18 Sudoeste 0 -- -- 57
2020-06-16 17:00:00 27.5 6 Sur 37 Este 0 -- -- 53
2020-06-16 16:00:00 25.5 22 Este 38 Este 0 -- -- 61
2020-06-16 15:00:00 25.6 21 Este 39 Este 0 -- -- 58
2020-06-16 14:00:00 25.4 20 Este 36 Este 0 -- -- 59
2020-06-16 13:00:00 25.2 21 Este 40 Este 0 -- -- 62
2020-06-16 12:00:00 25 18 Este 31 Este 0 -- -- 63
2020-06-16 11:00:00 24.9 15 Este 27 Este 0 -- -- 70
2020-06-16 10:00:00 25.9 6 Nordeste 24 Norte 0 -- -- 56
2020-06-16 09:00:00 24 10 Norte 20 Norte 0 -- -- 64
2020-06-16 08:00:00 22.5 12 Norte 19 Nordeste 0 -- -- 76
2020-06-16 07:00:00 22.4 9 Norte 14 Nordeste 0 -- -- 76
2020-06-16 06:00:00 22.4 0 Calma 12 Nordeste 0 -- -- 73
2020-06-16 05:00:00 22.7 8 Nordeste 16 Norte 0 -- -- 74
2020-06-16 04:00:00 22.7 0 Calma 13 Este 0 -- -- 78
2020-06-16 03:00:00 22.9 10 Sudeste 21 Este 0 -- -- 78
2020-06-16 02:00:00 23.4 5 Nordeste 14 Este 0 -- -- 72
2020-06-16 01:00:00 23.9 6 Nordeste 15 Norte 0 -- -- 68
2020-06-16 00:00:00 24.7 5 Noroeste 15 Este 0 -- -- 63
2020-06-15 23:00:00 23.9 6 Este 18 Este 0 -- -- 73
2020-06-15 22:00:00 23.8 9 Sudeste 17 Este 0 -- -- 77
2020-06-15 21:00:00 24.4 4 Sur 10 Sudoeste 0 -- -- 76
2020-06-15 20:00:00 24.9 5 Sudoeste 12 Este 0 -- -- 74
2020-06-15 19:00:00 24.7 8 Sudeste 18 Sudeste 0 -- -- 75
2020-06-15 18:00:00 25.2 8 Sudeste 19 Sudeste 0 -- -- 67
2020-06-15 17:00:00 26.1 14 Sur 22 Sur 0 -- -- 61
2020-06-15 16:00:00 26.1 15 Este 35 Este 0 -- -- 64
2020-06-15 15:00:00 25.6 18 Este 39 Este 0 -- -- 64
2020-06-15 14:00:00 25.6 19 Este 37 Este 0 -- -- 54
2020-06-15 13:00:00 25.5 18 Este 33 Este 0 -- -- 57
2020-06-15 12:00:00 25.4 15 Este 32 Este 0 -- -- 56
2020-06-15 11:00:00 26.4 12 Nordeste 21 Este 0 -- -- 50
2020-06-15 10:00:00 25.6 3 Este 19 Nordeste 0 -- -- 53
2020-06-15 09:00:00 23 12 Norte 23 Nordeste 0 -- -- 72
2020-06-15 08:00:00 22 10 Norte 18 Norte 0 -- -- 79
2020-06-15 07:00:00 21.5 10 Nordeste 15 Norte 0 -- -- 82
2020-06-15 06:00:00 21.9 8 Norte 15 Norte 0 -- -- 77
2020-06-15 05:00:00 22.1 10 Norte 21 Nordeste 0 -- -- 75
2020-06-15 04:00:00 22.1 12 Nordeste 18 Nordeste 0 -- -- 78
2020-06-15 03:00:00 22.2 12 Nordeste 31 Nordeste 0 -- -- 79
2020-06-15 02:00:00 22.3 18 Nordeste 35 Nordeste 0 -- -- 79
2020-06-15 01:00:00 22.8 13 Nordeste 22 Norte 0 -- -- 73
2020-06-15 00:00:00 23.1 13 Norte 37 Norte 0 -- -- 70
2020-06-14 23:00:00 23.3 21 Nordeste 32 Nordeste 0 -- -- 66
2020-06-14 22:00:00 23.2 17 Nordeste 37 Nordeste 0 -- -- 65
2020-06-14 21:00:00 23.2 23 Nordeste 43 Nordeste 0 -- -- 70
2020-06-14 20:00:00 23.9 22 Nordeste 37 Norte 0 -- -- 61
2020-06-14 19:00:00 25.1 18 Nordeste 28 Norte 0 -- -- 57
2020-06-14 18:00:00 25.7 14 Nordeste 32 Este 0 -- -- 53
2020-06-14 17:00:00 23.4 19 Este 40 Este 0 -- -- 71
2020-06-14 16:00:00 23.4 20 Este 36 Nordeste 0 -- -- 73
2020-06-14 15:00:00 23.1 23 Este 33 Este 0 -- -- 71
2020-06-14 14:00:00 23.3 19 Este 39 Este 0 -- -- 73
2020-06-14 13:00:00 22.9 21 Este 43 Este 0 -- -- 71
2020-06-14 12:00:00 23.2 19 Este 37 Este 0 -- -- 69
2020-06-14 11:00:00 23 18 Este 32 Este 0 -- -- 69
2020-06-14 10:00:00 22.9 16 Nordeste 24 Este 0 -- -- 67
2020-06-14 09:00:00 22.5 12 Nordeste 17 Nordeste 0 -- -- 69
2020-06-14 08:00:00 19.4 8 Nordeste 15 Nordeste 0 -- -- 77
2020-06-14 07:00:00 17.6 5 Nordeste 14 Nordeste 0 -- -- 80
2020-06-14 06:00:00 18.1 11 Nordeste 14 Nordeste 0 -- -- 78
2020-06-14 05:00:00 18.7 7 Nordeste 11 Nordeste 0 -- -- 78
2020-06-14 04:00:00 19.2 6 Nordeste 14 Norte 0 -- -- 78
2020-06-14 03:00:00 20.3 8 Norte 16 Norte 0 -- -- 74
2020-06-14 02:00:00 20.6 9 Norte 17 Norte 0 -- -- 73
2020-06-14 01:00:00 21.1 11 Norte 21 Nordeste 0 -- -- 72
2020-06-14 00:00:00 21.4 11 Norte 22 Norte 0 -- -- 70
2020-06-13 23:00:00 21.9 13 Norte 24 Norte 0 -- -- 67
2020-06-13 22:00:00 22.1 13 Norte 20 Nordeste 0 -- -- 67
2020-06-13 21:00:00 22.4 12 Nordeste 22 Nordeste 0 -- -- 65
2020-06-13 20:00:00 22.9 10 Este 27 Sudeste 0 -- -- 62
2020-06-13 19:00:00 22.5 12 Este 23 Este 0 -- -- 70
2020-06-13 18:00:00 23.2 11 Este 28 Este 0 -- -- 69
2020-06-13 17:00:00 22.8 17 Este 31 Este 0 -- -- 69
2020-06-13 16:00:00 23.1 18 Este 35 Este 0 -- -- 69
2020-06-13 15:00:00 23 19 Este 35 Este 0 -- -- 66
2020-06-13 14:00:00 22.5 17 Este 35 Nordeste 0 -- -- 68
2020-06-13 13:00:00 22.7 18 Este 32 Este 0 -- -- 68
2020-06-13 12:00:00 22.6 10 Este 22 Este 0 -- -- 68
2020-06-13 11:00:00 21.7 13 Nordeste 27 Nordeste 0 -- -- 66
2020-06-13 10:00:00 21.8 8 Este 23 Nordeste 0 -- -- 67
2020-06-13 09:00:00 21.7 5 Nordeste 19 Nordeste 0 -- -- 64
2020-06-13 08:00:00 20.1 4 Nordeste 13 Nordeste 0 -- -- 67
2020-06-13 07:00:00 18.8 7 Norte 19 Nordeste 0 -- -- 70
2020-06-13 06:00:00 18.4 15 Nordeste 20 Nordeste 0 -- -- 71
2020-06-13 05:00:00 19 5 Nordeste 14 Nordeste 0 -- -- 70
2020-06-13 04:00:00 19.7 8 Nordeste 14 Nordeste 0 -- -- 68
2020-06-13 03:00:00 20.4 8 Noroeste 16 Norte 0 -- -- 65
2020-06-13 02:00:00 20.9 8 Norte 15 Nordeste 0 -- -- 63
2020-06-13 01:00:00 21 10 Norte 22 Norte 0 -- -- 62
2020-06-13 00:00:00 21.5 11 Norte 26 Nordeste 0 -- -- 61
2020-06-12 23:00:00 21.6 13 Norte 28 Norte 0 -- -- 60
2020-06-12 22:00:00 21.8 19 Norte 33 Norte 0 -- -- 60
2020-06-12 21:00:00 22.5 14 Norte 32 Norte 0 -- -- 56
2020-06-12 20:00:00 23.4 16 Norte 27 Norte 0 -- -- 55
2020-06-12 19:00:00 23.3 14 Sudoeste 22 Sudoeste 0 -- -- 68
2020-06-12 18:00:00 24 13 Sudoeste 17 Sudoeste 0 -- -- 61
2020-06-12 17:00:00 23.9 8 Sur 17 Este 0 -- -- 62
2020-06-12 16:00:00 24 9 Este 21 Este 0 -- -- 61
2020-06-12 15:00:00 24.4 8 Sudeste 19 Este 0 -- -- 60
2020-06-12 14:00:00 24.4 8 Sudeste 16 Sudeste 0 -- -- 64
2020-06-12 13:00:00 23.8 9 Sudeste 19 Este 0 -- -- 67
2020-06-12 12:00:00 23.9 11 Este 23 Este 0 -- -- 65
2020-06-12 11:00:00 23.9 8 Oeste 26 Norte 0 -- -- 55
2020-06-12 10:00:00 23.2 15 Norte 27 Norte 0 -- -- 57
2020-06-12 09:00:00 22.2 4 Nordeste 12 Nordeste 0 -- -- 65
2020-06-12 08:00:00 20.3 6 Nordeste 10 Norte 0 -- -- 70
2020-06-12 07:00:00 20.2 8 Norte 12 Norte 0 -- -- 70
2020-06-12 06:00:00 20 4 Oeste 9 Nordeste 0 -- -- 71
2020-06-12 05:00:00 20.3 5 Norte 13 Norte 0 -- -- 71
2020-06-12 04:00:00 20.5 11 Norte 21 Norte 0 -- -- 70
2020-06-12 03:00:00 20.7 8 Norte 18 Norte 0 -- -- 70
2020-06-12 02:00:00 21 6 Nordeste 13 Norte 0 -- -- 68
2020-06-12 01:00:00 21.3 9 Norte 18 Norte 0 -- -- 64
2020-06-12 00:00:00 21.5 6 Nordeste 16 Nordeste 0 -- -- 67
2020-06-11 23:00:00 21.6 9 Nordeste 17 Nordeste 0 -- -- 68
2020-06-11 22:00:00 21.8 11 Nordeste 24 Nordeste 0 -- -- 68
2020-06-11 21:00:00 22.1 13 Nordeste 22 Nordeste 0 -- -- 64
2020-06-11 20:00:00 21.9 14 Este 21 Este 0 -- -- 68
2020-06-11 19:00:00 22.2 12 Este 28 Este 0 -- -- 69
2020-06-11 18:00:00 22.4 18 Este 32 Este 0 -- -- 66
2020-06-11 17:00:00 22.2 22 Este 33 Este 0 -- -- 67
2020-06-11 16:00:00 22.7 21 Este 37 Este 0 -- -- 64
2020-06-11 15:00:00 22.5 19 Este 40 Este 0 -- -- 65
2020-06-11 14:00:00 22.6 19 Este 43 Este 0 -- -- 64
2020-06-11 13:00:00 22.4 22 Este 40 Este 0 -- -- 67
2020-06-11 12:00:00 22.3 22 Este 37 Este 0 -- -- 67
2020-06-11 11:00:00 22.9 11 Nordeste 28 Nordeste 0 -- -- 64
2020-06-11 10:00:00 22.4 14 Nordeste 22 Nordeste 0 -- -- 62
2020-06-11 09:00:00 21.8 12 Nordeste 19 Nordeste 0 -- -- 66
2020-06-11 08:00:00 20.1 5 Nordeste 12 Norte 0 -- -- 72
2020-06-11 07:00:00 20 7 Norte 14 Norte 0 -- -- 70
2020-06-11 06:00:00 20.2 9 Nordeste 19 Norte 0 -- -- 68
2020-06-11 05:00:00 20.4 12 Nordeste 23 Nordeste 0 -- -- 67
2020-06-11 04:00:00 20.6 13 Nordeste 18 Nordeste 0 -- -- 67
2020-06-11 03:00:00 20.7 11 Nordeste 19 Nordeste 0 -- -- 67
2020-06-11 02:00:00 20.9 13 Nordeste 22 Nordeste 0 -- -- 69
2020-06-11 01:00:00 21.2 16 Nordeste 23 Nordeste 0 -- -- 68
2020-06-11 00:00:00 21.4 14 Nordeste 30 Nordeste 0 -- -- 69
2020-06-10 23:00:00 21.5 21 Nordeste 33 Nordeste 0 -- -- 68
2020-06-10 22:00:00 21.7 21 Nordeste 31 Norte 0 -- -- 66
2020-06-10 21:00:00 22 19 Nordeste 31 Nordeste 0 -- -- 66
2020-06-10 20:00:00 22.7 20 Nordeste 33 Nordeste 0 -- -- 64
2020-06-10 19:00:00 22.6 25 Este 36 Nordeste 0 -- -- 64
2020-06-10 18:00:00 23.1 24 Este 41 Este 0 -- -- 61
2020-06-10 17:00:00 23.2 22 Este 45 Nordeste 0 -- -- 62
2020-06-10 16:00:00 22.9 26 Este 47 Este 0 -- -- 66
2020-06-10 15:00:00 22.9 28 Este 44 Este 0 -- -- 62
2020-06-10 14:00:00 22.6 22 Este 42 Este 0 -- -- 63
2020-06-10 13:00:00 22.4 22 Este 47 Este 0 -- -- 63
2020-06-10 12:00:00 22.3 26 Este 45 Este 0 -- -- 66
2020-06-10 11:00:00 24.2 12 Nordeste 27 Nordeste 0 -- -- 50
2020-06-10 10:00:00 22.6 17 Nordeste 28 Nordeste 0 -- -- 57
2020-06-10 09:00:00 21.6 14 Norte 24 Norte 0 -- -- 59
2020-06-10 08:00:00 20.2 10 Norte 19 Norte 0 -- -- 64
2020-06-10 07:00:00 19.5 9 Nordeste 19 Norte 0 -- -- 67
2020-06-10 06:00:00 20.2 7 Norte 20 Norte 0 -- -- 63
2020-06-10 05:00:00 20.5 12 Norte 19 Norte 0 -- -- 65
2020-06-10 04:00:00 20.6 9 Norte 14 Noroeste 0 -- -- 64
2020-06-10 03:00:00 20.8 9 Nordeste 24 Nordeste 0 -- -- 64
2020-06-10 02:00:00 20.8 10 Nordeste 27 Nordeste 0 -- -- 67
2020-06-10 01:00:00 20.8 18 Nordeste 33 Nordeste 0 -- -- 66
2020-06-10 00:00:00 21.1 20 Nordeste 27 Nordeste 0 -- -- 66
2020-06-09 23:00:00 21.4 17 Nordeste 30 Norte 0 -- -- 69
2020-06-09 22:00:00 21.6 19 Nordeste 36 Nordeste 0 -- -- 69
2020-06-09 21:00:00 22.2 24 Nordeste 38 Nordeste 0 -- -- 67
2020-06-09 20:00:00 23 23 Nordeste 39 Nordeste 0 -- -- 62
2020-06-09 19:00:00 23.4 21 Nordeste 41 Nordeste 0 -- -- 61
2020-06-09 18:00:00 23.4 28 Nordeste 41 Nordeste 0 -- -- 65
2020-06-09 17:00:00 23.4 24 Este 51 Este 0 -- -- 62
2020-06-09 16:00:00 23.5 26 Este 53 Este 0 -- -- 61
2020-06-09 15:00:00 23 25 Este 47 Este 0 -- -- 65
2020-06-09 14:00:00 23.4 22 Este 45 Este 0 -- -- 67
2020-06-09 13:00:00 24.6 22 Este 41 Nordeste 0 -- -- 56
2020-06-09 12:00:00 24.4 22 Nordeste 41 Este 0 -- -- 55
2020-06-09 11:00:00 23.6 19 Nordeste 30 Nordeste 0 -- -- 59
2020-06-09 10:00:00 23.1 15 Nordeste 29 Norte 0 -- -- 59
2020-06-09 09:00:00 22.2 14 Nordeste 22 Norte 0 -- -- 69
2020-06-09 08:00:00 21.1 9 Norte 25 Norte 0 -- -- 73
2020-06-09 07:00:00 20.5 9 Norte 18 Norte 0 -- -- 74
2020-06-09 06:00:00 20.8 12 Norte 26 Nordeste 0 -- -- 71
2020-06-09 05:00:00 21.3 15 Nordeste 23 Nordeste 0 -- -- 73
2020-06-09 04:00:00 21.7 14 Nordeste 27 Nordeste 0 -- -- 74
2020-06-09 03:00:00 21.9 16 Nordeste 25 Nordeste 0 -- -- 75
2020-06-09 02:00:00 22.1 15 Nordeste 23 Nordeste 0 -- -- 75
2020-06-09 01:00:00 22.1 13 Nordeste 24 Nordeste 0 -- -- 74
2020-06-09 00:00:00 22.3 15 Nordeste 26 Nordeste 0 -- -- 74